Time,TemperatureF,DewpointF,PressureIn,WindDirection,WindDirectionDegrees,WindSpeedMPH,WindSpeedGustMPH,Humidity,HourlyPrecipIn,Conditions,Clouds,dailyrainin,SoftwareType,DateUTC
2015-03-28 00:22:00,29.0,22.0,29.87,NW,323,1.0,5.0,76,0.00,,,0.94,,2015-03-28 04:22:00,
2015-03-28 00:53:00,28.0,21.0,29.88,West,270,0.0,4.0,76,0.00,,,0.91,,2015-03-28 04:53:00,
2015-03-28 01:12:00,28.0,22.0,29.88,North,359,0.0,8.0,79,0.00,,,0.91,,2015-03-28 05:12:00,
2015-03-28 01:22:00,28.0,22.0,29.88,WNW,288,0.0,5.0,78,0.00,,,0.91,,2015-03-28 05:22:00,
2015-03-28 01:42:00,28.0,22.0,29.88,WNW,291,0.0,10.0,77,0.00,,,0.91,,2015-03-28 05:42:00,
2015-03-28 01:52:00,28.0,21.0,29.88,WNW,297,0.0,10.0,76,0.00,,,0.82,,2015-03-28 05:52:00,
2015-03-28 02:12:00,28.0,22.0,29.88,North,359,1.0,8.0,77,0.00,,,0.82,,2015-03-28 06:12:00,
2015-03-28 02:22:00,28.0,21.0,29.88,WNW,302,1.0,6.0,75,0.00,,,0.82,,2015-03-28 06:22:00,
2015-03-28 02:52:00,27.0,21.0,29.89,NW,314,0.0,9.0,78,0.00,,,0.62,,2015-03-28 06:52:00,
2015-03-28 03:11:00,27.0,21.0,29.88,NW,323,0.0,8.0,77,0.00,,,0.62,,2015-03-28 07:11:00,
2015-03-28 03:22:00,26.0,20.0,29.88,WNW,289,0.0,9.0,77,0.00,,,0.62,,2015-03-28 07:22:00,
2015-03-28 03:41:00,26.0,20.0,29.89,NW,326,1.0,12.0,77,0.00,,,0.62,,2015-03-28 07:41:00,
2015-03-28 03:52:00,26.0,20.0,29.89,NW,304,1.0,7.0,78,0.00,,,0.49,,2015-03-28 07:52:00,
2015-03-28 04:22:00,25.0,18.0,29.88,NW,323,2.0,12.0,75,0.00,,,0.49,,2015-03-28 08:22:00,
2015-03-28 04:42:00,24.0,18.0,29.89,NW,318,0.0,6.0,76,0.00,,,0.49,,2015-03-28 08:42:00,
2015-03-28 04:52:00,23.0,14.0,29.89,WNW,287,1.0,12.0,69,0.00,,,0.42,,2015-03-28 08:52:00,
2015-03-28 05:11:00,23.0,14.0,29.89,North,4,2.0,8.0,68,0.00,,,0.42,,2015-03-28 09:11:00,
2015-03-28 05:22:00,22.0,14.0,29.90,NW,309,3.0,10.0,71,0.00,,,0.42,,2015-03-28 09:22:00,
2015-03-28 05:53:00,21.0,12.0,29.92,NNW,345,2.0,7.0,69,0.00,,,0.33,,2015-03-28 09:53:00,
2015-03-28 06:12:00,21.0,13.0,29.93,NNW,331,3.0,12.0,71,0.00,,,0.33,,2015-03-28 10:12:00,
2015-03-28 06:22:00,21.0,14.0,29.93,North,359,1.0,12.0,73,0.00,,,0.33,,2015-03-28 10:22:00,
2015-03-28 06:53:00,20.0,12.0,29.95,NW,312,2.0,8.0,71,0.00,,,0.28,,2015-03-28 10:53:00,
2015-03-28 07:23:00,19.0,11.0,29.96,NNW,331,2.0,9.0,71,0.00,,,0.28,,2015-03-28 11:23:00,
2015-03-28 07:52:00,19.0,10.0,29.98,NW,308,0.0,6.0,68,0.00,,,0.25,,2015-03-28 11:52:00,
2015-03-28 08:11:00,19.0,11.0,29.99,NNW,330,2.0,6.0,69,0.00,,,0.25,,2015-03-28 12:11:00,
2015-03-28 08:22:00,19.0,11.0,30.00,NW,310,3.0,8.0,69,0.00,,,0.25,,2015-03-28 12:22:00,
2015-03-28 08:52:00,19.0,9.0,30.01,North,359,2.0,8.0,65,0.00,,,0.21,,2015-03-28 12:52:00,
2015-03-28 09:11:00,19.0,10.0,30.01,North,359,4.0,10.0,66,0.00,,,0.21,,2015-03-28 13:11:00,
2015-03-28 09:21:00,19.0,11.0,30.02,North,359,1.0,10.0,69,0.00,,,0.21,,2015-03-28 13:21:00,
2015-03-28 09:42:00,19.0,11.0,30.02,NW,310,4.0,10.0,69,0.00,,,0.21,,2015-03-28 13:42:00,
2015-03-28 09:52:00,19.0,12.0,30.03,NW,316,1.0,13.0,74,0.00,,,0.18,,2015-03-28 13:52:00,
2015-03-28 10:21:00,18.0,14.0,30.04,NW,326,2.0,9.0,84,0.00,,,0.18,,2015-03-28 14:21:00,
2015-03-28 10:42:00,19.0,14.0,30.04,NW,324,2.0,10.0,80,0.00,,,0.18,,2015-03-28 14:42:00,